createdAt,value
2019-06-27T00:00:09.211Z,2.62
2019-06-27T00:05:12.900Z,2.77
2019-06-27T00:10:16.411Z,2.50
2019-06-27T00:15:19.863Z,2.40
2019-06-27T00:20:23.313Z,2.37
2019-06-27T00:25:26.758Z,2.22
2019-06-27T00:30:30.209Z,2.52
2019-06-27T00:35:33.667Z,2.47
2019-06-27T00:40:37.115Z,2.60
2019-06-27T00:45:40.563Z,2.40
2019-06-27T00:50:44.863Z,2.23
2019-06-27T00:55:48.310Z,2.65
2019-06-27T01:00:51.762Z,2.37
2019-06-27T01:05:55.213Z,2.45
2019-06-27T01:10:58.658Z,2.27
2019-06-27T01:16:02.121Z,2.52
2019-06-27T01:21:05.738Z,2.45
2019-06-27T01:26:09.186Z,2.10
2019-06-27T01:31:12.864Z,2.55
2019-06-27T01:36:16.329Z,2.67
2019-06-27T01:41:19.764Z,2.12
2019-06-27T01:46:23.213Z,2.42
2019-06-27T01:51:26.658Z,2.27
2019-06-27T01:56:30.109Z,2.70
2019-06-27T02:01:33.555Z,2.30
2019-06-27T02:06:37.005Z,2.25
2019-06-27T02:11:40.453Z,2.45
2019-06-27T02:16:43.896Z,2.17
2019-06-27T02:21:47.338Z,2.27
2019-06-27T02:26:50.783Z,2.22
2019-06-27T02:31:54.236Z,2.20
2019-06-27T02:36:57.685Z,2.15
2019-06-27T02:42:01.133Z,2.12
2019-06-27T02:47:04.617Z,1.95
2019-06-27T02:52:08.028Z,1.87
2019-06-27T02:57:11.479Z,2.15
2019-06-27T03:02:14.923Z,2.37
2019-06-27T03:07:18.368Z,2.37
2019-06-27T03:12:21.901Z,2.15
2019-06-27T03:17:25.336Z,2.52
2019-06-27T03:22:28.780Z,2.25
2019-06-27T03:27:32.371Z,3.02
2019-06-27T03:32:35.824Z,2.40
2019-06-27T03:37:39.275Z,2.70
2019-06-27T03:42:42.727Z,2.27
2019-06-27T03:47:46.558Z,1.98
2019-06-27T03:52:50.006Z,2.30
2019-06-27T03:57:53.455Z,1.92
2019-06-27T04:02:56.915Z,2.15
2019-06-27T04:08:00.367Z,1.82
2019-06-27T04:13:03.823Z,2.00
2019-06-27T04:18:07.278Z,1.55
2019-06-27T04:23:10.718Z,1.75
2019-06-27T04:28:14.235Z,1.82
2019-06-27T04:33:17.684Z,1.55
2019-06-27T04:38:21.133Z,1.82
2019-06-27T04:43:24.579Z,1.82
2019-06-27T04:48:28.029Z,1.50
2019-06-27T04:53:31.488Z,1.50
2019-06-27T04:58:34.922Z,1.80
2019-06-27T05:03:38.366Z,1.35
2019-06-27T05:08:41.818Z,1.45
2019-06-27T05:13:45.265Z,1.52
2019-06-27T05:18:48.876Z,1.37
2019-06-27T05:23:52.270Z,1.90
2019-06-27T05:28:55.722Z,1.52
2019-06-27T05:33:59.190Z,1.50
2019-06-27T05:39:02.779Z,1.50
2019-06-27T05:44:06.226Z,1.55
2019-06-27T05:49:09.676Z,1.42
2019-06-27T05:54:13.123Z,1.22
2019-06-27T05:59:16.566Z,1.20
2019-06-27T06:04:23.784Z,1.30
2019-06-27T06:09:25.187Z,1.20
2019-06-27T06:14:28.646Z,1.25
2019-06-27T06:19:32.068Z,1.37
2019-06-27T06:24:35.517Z,1.40
2019-06-27T06:29:38.953Z,1.22
2019-06-27T06:34:42.423Z,2.00
2019-06-27T06:39:45.872Z,1.60
2019-06-27T06:44:49.352Z,2.22
2019-06-27T06:49:52.784Z,1.10
2019-06-27T06:54:56.254Z,1.45
2019-06-27T06:59:59.702Z,1.52
2019-06-27T07:05:03.429Z,1.42
2019-06-27T07:10:07.974Z,1.80
2019-06-27T07:15:11.765Z,1.77
2019-06-27T07:20:15.359Z,1.40
2019-06-27T07:25:18.821Z,1.50
2019-06-27T07:30:22.269Z,1.77
2019-06-27T07:35:25.731Z,1.32
2019-06-27T07:40:29.185Z,1.37
2019-06-27T07:45:32.644Z,1.60
2019-06-27T07:50:36.094Z,1.30
2019-06-27T07:55:39.544Z,1.50
2019-06-27T08:00:43.008Z,1.30
2019-06-27T08:05:46.643Z,1.35
2019-06-27T08:10:50.093Z,1.40
2019-06-27T08:15:53.551Z,1.10
2019-06-27T08:20:57.018Z,2.22
2019-06-27T08:26:00.485Z,1.60
2019-06-27T08:31:04.019Z,2.08
2019-06-27T08:36:07.473Z,1.50
2019-06-27T08:41:13.994Z,1.47
2019-06-27T08:46:16.108Z,1.20
2019-06-27T08:51:19.575Z,1.60
2019-06-27T08:56:23.036Z,1.30
2019-06-27T09:01:26.670Z,1.67
2019-06-27T09:06:30.125Z,1.32
2019-06-27T09:11:37.817Z,1.20
2019-06-27T09:16:38.765Z,1.47
2019-06-27T09:21:42.218Z,1.77
2019-06-27T09:26:45.697Z,1.20
2019-06-27T09:31:49.139Z,1.30
2019-06-27T09:36:52.599Z,1.30
2019-06-27T09:41:56.057Z,1.37
2019-06-27T09:46:59.508Z,1.30
2019-06-27T09:52:02.962Z,1.27
2019-06-27T09:57:06.417Z,1.40
2019-06-27T10:02:09.968Z,1.10
2019-06-27T10:07:13.407Z,1.05
2019-06-27T10:12:16.867Z,1.00
2019-06-27T10:17:20.324Z,1.15
2019-06-27T10:22:23.780Z,1.25
2019-06-27T10:27:27.234Z,1.17
2019-06-27T10:32:30.690Z,1.00
2019-06-27T10:37:34.149Z,1.07
2019-06-27T10:42:37.651Z,1.55
2019-06-27T10:47:41.097Z,1.30
2019-06-27T10:52:44.605Z,1.20
2019-06-27T10:57:48.013Z,1.30
2019-06-27T11:02:51.482Z,1.02
2019-06-27T11:07:54.937Z,1.12
2019-06-27T11:12:59.645Z,1.20
2019-06-27T11:18:03.236Z,1.57
2019-06-27T11:23:06.709Z,1.10
2019-06-27T11:28:10.418Z,1.15
2019-06-27T11:33:13.903Z,1.37
2019-06-27T11:38:17.355Z,1.10
2019-06-27T11:43:20.815Z,1.22
2019-06-27T11:48:24.275Z,1.25
2019-06-27T11:53:27.748Z,1.37
2019-06-27T11:58:31.183Z,1.15
2019-06-27T12:03:48.426Z,1.47
2019-06-27T12:08:39.824Z,1.27
2019-06-27T12:13:43.272Z,1.32
2019-06-27T12:18:46.723Z,1.20
2019-06-27T12:23:50.176Z,1.62
2019-06-27T12:28:53.708Z,1.32
2019-06-27T12:34:06.903Z,1.20
2019-06-27T12:39:02.355Z,1.10
2019-06-27T12:44:05.817Z,1.30
2019-06-27T12:49:09.264Z,0.88
2019-06-27T12:54:12.718Z,1.40
2019-06-27T12:59:16.173Z,1.27
2019-06-27T13:04:23.918Z,1.10
2019-06-27T13:09:24.901Z,1.92
2019-06-27T13:14:28.447Z,2.20
2019-06-27T13:19:31.912Z,2.47
2019-06-27T13:24:35.353Z,2.72
2019-06-27T13:29:38.803Z,3.62
2019-06-27T13:34:42.327Z,4.33
2019-06-27T13:39:45.810Z,4.42
2019-06-27T13:44:49.397Z,4.55
2019-06-27T13:49:52.872Z,5.10
2019-06-27T13:54:56.292Z,4.58
2019-06-27T14:00:01.346Z,5.42
2019-06-27T14:05:07.724Z,5.22
2019-06-27T14:10:11.732Z,4.80
2019-06-27T14:15:15.497Z,4.87
2019-06-27T14:20:18.964Z,4.27
2019-06-27T14:25:22.410Z,4.65
2019-06-27T14:30:26.197Z,4.80
2019-06-27T14:35:29.645Z,4.08
2019-06-27T14:40:33.090Z,4.78
2019-06-27T14:45:36.540Z,4.53
2019-06-27T14:50:39.985Z,4.00
2019-06-27T14:55:43.435Z,4.75
2019-06-27T15:00:46.955Z,4.87
2019-06-27T15:05:50.398Z,4.10
2019-06-27T15:11:00.100Z,4.12
2019-06-27T15:16:11.971Z,4.03
2019-06-27T15:21:08.745Z,4.03
2019-06-27T15:26:12.189Z,3.80
2019-06-27T15:31:15.644Z,4.42
2019-06-27T15:36:19.080Z,4.00
2019-06-27T15:41:22.555Z,4.20
2019-06-27T15:46:26.175Z,4.30
2019-06-27T15:51:29.568Z,3.95
2019-06-27T15:56:33.031Z,3.58
2019-06-27T16:01:36.486Z,3.65
2019-06-27T16:06:39.967Z,3.25
2019-06-27T16:11:43.409Z,3.35
2019-06-27T16:16:46.855Z,2.67
2019-06-27T16:21:50.304Z,3.17
2019-06-27T16:26:53.747Z,3.47
2019-06-27T16:31:57.362Z,3.98
2019-06-27T16:37:00.822Z,3.37
2019-06-27T16:42:04.258Z,3.72
2019-06-27T16:47:07.702Z,3.22
2019-06-27T16:52:11.170Z,3.12
2019-06-27T16:57:14.672Z,3.17
2019-06-27T17:02:18.122Z,3.58
2019-06-27T17:07:21.565Z,3.08
2019-06-27T17:12:25.007Z,2.65
2019-06-27T17:17:28.460Z,2.77
2019-06-27T17:22:31.908Z,2.50
2019-06-27T17:27:35.522Z,2.40
2019-06-27T17:32:38.964Z,2.30
2019-06-27T17:37:42.408Z,2.55
2019-06-27T17:42:45.858Z,2.35
2019-06-27T17:47:49.309Z,2.17
2019-06-27T17:52:53.405Z,2.00
2019-06-27T17:57:56.882Z,2.20
2019-06-27T18:03:00.328Z,2.10
2019-06-27T18:08:03.792Z,2.12
2019-06-27T18:13:07.249Z,1.70
2019-06-27T18:18:10.719Z,2.15
2019-06-27T18:23:14.159Z,1.77
2019-06-27T18:28:17.600Z,2.40
2019-06-27T18:33:21.044Z,1.65
2019-06-27T18:38:24.484Z,1.62
2019-06-27T18:43:27.939Z,1.87
2019-06-27T18:48:31.780Z,1.60
2019-06-27T18:53:35.234Z,2.47
2019-06-27T18:58:38.683Z,2.20
2019-06-27T19:03:42.125Z,1.47
2019-06-27T19:08:45.577Z,1.62
2019-06-27T19:13:49.036Z,1.60
2019-06-27T19:18:54.133Z,1.82
2019-06-27T19:23:59.220Z,1.67
2019-06-27T19:29:14.259Z,1.70
2019-06-27T19:34:17.701Z,1.90
2019-06-27T19:39:21.136Z,1.75
2019-06-27T19:44:24.996Z,1.80
2019-06-27T19:49:28.460Z,1.42
2019-06-27T19:54:31.892Z,1.40
2019-06-27T19:59:35.400Z,1.40
2019-06-27T20:04:38.842Z,1.27
2019-06-27T20:09:42.818Z,1.70
2019-06-27T20:14:46.289Z,1.17
2019-06-27T20:19:49.745Z,1.20
2019-06-27T20:24:53.215Z,1.60
2019-06-27T20:29:57.748Z,1.00
2019-06-27T20:35:01.213Z,1.20
2019-06-27T20:40:07.783Z,1.12
2019-06-27T20:45:11.928Z,1.30
2019-06-27T20:50:15.400Z,0.80
2019-06-27T20:55:18.859Z,0.95
2019-06-27T21:00:22.663Z,1.17
2019-06-27T21:05:26.129Z,0.82
2019-06-27T21:10:29.591Z,0.90
2019-06-27T21:15:33.063Z,0.80
2019-06-27T21:20:36.505Z,1.17
2019-06-27T21:25:39.972Z,0.68
2019-06-27T21:30:44.767Z,1.12
2019-06-27T21:35:48.237Z,0.88
2019-06-27T21:40:51.689Z,1.00
2019-06-27T21:45:55.170Z,0.93
2019-06-27T21:50:58.595Z,1.12
2019-06-27T21:56:02.155Z,0.93
2019-06-27T22:01:05.588Z,1.25
2019-06-27T22:06:09.185Z,1.05
2019-06-27T22:11:12.650Z,0.80
2019-06-27T22:16:16.105Z,0.98
2019-06-27T22:21:19.557Z,0.93
2019-06-27T22:26:24.144Z,0.70
2019-06-27T22:31:27.597Z,0.80
2019-06-27T22:36:31.055Z,0.75
2019-06-27T22:41:52.780Z,0.95
2019-06-27T22:47:14.513Z,0.90
2019-06-27T22:52:22.408Z,0.62
2019-06-27T22:57:25.868Z,0.93
2019-06-27T23:02:29.334Z,0.88
2019-06-27T23:07:32.828Z,1.02
2019-06-27T23:12:36.275Z,0.70
2019-06-27T23:17:39.724Z,0.42
2019-06-27T23:22:43.177Z,0.80
2019-06-27T23:27:47.372Z,1.00
2019-06-27T23:32:50.993Z,0.60
2019-06-27T23:37:54.446Z,0.98
2019-06-27T23:42:57.916Z,1.20
2019-06-27T23:48:01.365Z,0.80
2019-06-27T23:53:04.826Z,0.70
2019-06-27T23:58:08.280Z,0.98
